Time;durP1;ratioP1;P1;durP2;ratioP2;P2;SDS_P1;SDS_P2;PMS_P1;PMS_P2;Temp;Humidity;BMP_temperature;BMP_pressure;BME280_temperature;BME280_humidity;BME280_pressure;Samples;Min_cycle;Max_cycle;Signal;HPM_P1;HPM_P2
2023/08/29 00:00:05;;;;;;;4.80;2.17;;;11.90;99.90;;;10.96;100.00;97254.69;4964865;28;20141;-78
2023/08/29 00:02:32;;;;;;;6.43;2.60;;;12.00;99.90;;;11.10;100.00;97247.03;4963159;28;20567;-77
2023/08/29 00:04:59;;;;;;;4.57;2.30;;;12.10;99.90;;;11.30;100.00;97257.28;4965334;28;20059;-78
2023/08/29 00:07:26;;;;;;;5.25;3.22;;;12.10;99.90;;;11.24;100.00;97246.34;4959398;28;20047;-78
2023/08/29 00:09:53;;;;;;;5.93;2.20;;;12.10;99.90;;;11.39;100.00;97234.34;4961671;28;20053;-78
2023/08/29 00:12:20;;;;;;;3.47;2.40;;;12.20;99.90;;;11.27;100.00;97223.66;4964142;28;20098;-80
2023/08/29 00:14:49;;;;;;;9.18;4.32;;;12.30;99.90;;;11.26;100.00;97232.34;4965105;28;20113;-80
2023/08/29 00:17:16;;;;;;;7.85;4.18;;;12.20;99.90;;;11.39;100.00;97235.19;4962779;28;20047;-79
2023/08/29 00:19:43;;;;;;;3.97;3.03;;;12.30;99.90;;;11.45;100.00;97228.84;4963612;28;20476;-79
2023/08/29 00:22:10;;;;;;;6.22;3.90;;;12.30;99.90;;;11.45;100.00;97228.84;4962793;28;20061;-78
2023/08/29 00:24:37;;;;;;;5.10;2.22;;;12.30;99.90;;;11.43;100.00;97225.50;4966965;28;20066;-78
2023/08/29 00:27:05;;;;;;;4.28;2.30;;;12.30;99.90;;;11.54;100.00;97230.09;4979593;28;20102;-79
2023/08/29 00:29:31;;;;;;;4.82;2.67;;;12.40;99.90;;;11.55;100.00;97237.00;4982051;28;20196;-78
2023/08/29 00:31:58;;;;;;;5.55;4.00;;;12.40;99.90;;;11.72;100.00;97239.53;4980931;28;20086;-79
2023/08/29 00:34:26;;;;;;;10.50;4.25;;;12.50;99.90;;;11.78;100.00;97238.38;4968113;28;20057;-79
2023/08/29 00:36:53;;;;;;;6.95;3.50;;;12.60;99.90;;;11.89;100.00;97230.91;4964807;28;20059;-78
2023/08/29 00:39:20;;;;;;;5.75;2.58;;;12.60;99.90;;;11.77;100.00;97223.69;4966758;28;20078;-78
2023/08/29 00:41:49;;;;;;;3.30;2.75;;;12.70;99.90;;;11.81;100.00;97222.63;4964983;28;20548;-78
2023/08/29 00:44:16;;;;;;;3.30;2.42;;;12.70;99.90;;;11.76;100.00;97227.22;4965820;28;20417;-79
2023/08/29 00:46:45;;;;;;;6.45;4.10;;;12.70;99.90;;;11.94;100.00;97226.28;4963918;28;20432;-79
2023/08/29 00:49:17;;;;;;;5.63;4.00;;;12.70;99.90;;;12.09;100.00;97228.06;4948219;28;20050;-79
2023/08/29 00:51:46;;;;;;;6.10;3.65;;;12.80;99.90;;;12.10;100.00;97237.53;4980484;28;20050;-79
2023/08/29 00:54:15;;;;;;;5.60;3.47;;;12.90;99.90;;;12.21;100.00;97230.91;4964970;28;20598;-81
2023/08/29 00:56:44;;;;;;;5.13;3.92;;;12.90;99.90;;;12.10;100.00;97234.94;4961682;28;20046;-78
2023/08/29 00:59:13;;;;;;;4.15;2.92;;;13.00;99.90;;;12.01;100.00;97238.03;4962777;28;20134;-79
2023/08/29 01:01:40;;;;;;;9.88;2.90;;;12.90;99.90;;;11.89;100.00;97244.72;4950796;28;20051;-77
2023/08/29 01:04:10;;;;;;;6.88;4.10;;;12.80;99.90;;;12.02;100.00;97249.25;4980535;28;20054;-79
2023/08/29 01:06:38;;;;;;;7.85;4.18;;;12.80;99.90;;;12.08;100.00;97241.97;4980055;28;20049;-78
2023/08/29 01:09:08;;;;;;;6.25;2.95;;;12.90;99.90;;;11.99;100.00;97239.88;4963171;28;20480;-79
2023/08/29 01:12:11;;;;;;;6.70;3.22;;;12.80;99.90;;;11.92;100.00;97235.91;4962254;28;20062;-81
2023/08/29 01:15:10;;;;;;;4.10;2.55;;;12.80;99.90;;;12.02;100.00;97246.66;4963954;28;20061;-77
2023/08/29 01:17:52;;;;;;;4.18;3.22;;;12.80;99.90;;;12.03;100.00;97240.56;4948634;28;20047;-80
2023/08/29 01:20:21;;;;;;;6.57;4.30;;;12.80;99.90;;;12.02;100.00;97229.31;4959941;28;20066;-78
2023/08/29 01:23:21;;;;;;;8.15;4.57;;;12.80;99.90;;;12.11;100.00;97231.41;4930861;28;20065;-79
2023/08/29 01:25:53;;;;;;;10.82;4.70;;;12.80;99.90;;;12.07;100.00;97231.66;4963103;28;20054;-77
2023/08/29 01:28:21;;;;;;;10.98;5.85;;;12.80;99.90;;;12.11;100.00;97234.03;4963107;28;20053;-79
2023/08/29 01:30:50;;;;;;;7.53;5.57;;;12.90;99.90;;;12.23;100.00;97231.69;4976796;28;20054;-78
2023/08/29 01:33:17;;;;;;;9.43;5.93;;;12.90;99.90;;;12.23;100.00;97229.06;4963472;28;20114;-79
2023/08/29 01:35:46;;;;;;;7.38;5.40;;;13.00;99.90;;;12.31;100.00;97230.31;4964514;28;20066;-78
2023/08/29 01:38:17;;;;;;;13.45;5.85;;;13.00;99.90;;;12.27;100.00;97227.97;4964246;28;20500;-79
2023/08/29 01:40:45;;;;;;;8.00;6.15;;;13.00;99.90;;;12.22;100.00;97233.41;4965466;28;20055;-78
2023/08/29 01:43:12;;;;;;;10.05;4.95;;;13.00;99.90;;;12.22;100.00;97228.22;4966419;28;20047;-79
2023/08/29 01:45:39;;;;;;;6.07;4.40;;;13.00;99.90;;;12.30;100.00;97228.66;4963065;28;20073;-78
2023/08/29 01:48:11;;;;;;;6.95;4.63;;;13.00;99.90;;;12.29;100.00;97228.72;4963691;28;20050;-80
2023/08/29 01:50:41;;;;;;;11.45;5.55;;;13.00;99.90;;;12.25;100.00;97233.28;4961458;28;20058;-79
2023/08/29 01:53:09;;;;;;;8.02;6.20;;;13.00;99.90;;;12.19;100.00;97224.97;4967031;28;20500;-77
2023/08/29 01:55:38;;;;;;;10.07;6.57;;;13.00;99.90;;;12.21;100.00;97221.34;4963673;28;20058;-80
2023/08/29 01:58:08;;;;;;;9.35;7.13;;;13.00;99.90;;;12.29;100.00;97215.72;4932397;28;20638;-78
2023/08/29 02:00:36;;;;;;;11.65;7.63;;;13.00;99.90;;;12.34;100.00;97218.91;4978010;28;20454;-79
2023/08/29 02:03:03;;;;;;;9.95;6.78;;;13.10;99.90;;;12.39;100.00;97221.25;4964632;28;20051;-79
2023/08/29 02:05:30;;;;;;;9.50;6.72;;;13.10;99.90;;;12.41;100.00;97222.84;4961850;28;20047;-80
2023/08/29 02:07:57;;;;;;;10.02;6.93;;;13.10;99.90;;;12.31;100.00;97206.88;4962945;28;20059;-78
2023/08/29 02:10:42;;;;;;;5.68;4.97;;;13.10;99.90;;;12.22;100.00;97207.41;4966636;28;20054;-79
2023/08/29 02:13:09;;;;;;;8.38;4.60;;;13.10;99.90;;;12.23;100.00;97205.66;4964508;28;20065;-78
2023/08/29 02:15:37;;;;;;;7.72;4.50;;;13.10;99.90;;;12.18;100.00;97205.91;4961741;28;20471;-79
2023/08/29 02:18:04;;;;;;;5.80;3.53;;;13.00;99.90;;;12.05;100.00;97202.28;4962642;28;20634;-79
2023/08/29 02:20:32;;;;;;;10.48;6.30;;;13.00;99.90;;;12.20;100.00;97206.66;4974500;28;20394;-78
2023/08/29 02:22:59;;;;;;;11.60;9.10;;;12.90;99.90;;;12.30;100.00;97204.38;4962477;28;20146;-78
2023/08/29 02:25:26;;;;;;;12.70;8.63;;;13.00;99.90;;;12.30;100.00;97201.78;4959791;28;20615;-79
2023/08/29 02:27:53;;;;;;;11.45;7.15;;;13.00;99.90;;;12.29;100.00;97197.50;4962135;28;20176;-78
2023/08/29 02:30:20;;;;;;;10.43;6.93;;;13.10;99.90;;;12.10;100.00;97192.47;4964806;28;20101;-79
2023/08/29 02:32:47;;;;;;;10.52;6.57;;;13.00;99.90;;;12.13;100.00;97192.28;4963354;28;20472;-80
2023/08/29 02:35:15;;;;;;;7.70;5.50;;;13.00;99.90;;;12.17;100.00;97185.16;4965963;28;20054;-78
2023/08/29 02:37:43;;;;;;;8.38;6.05;;;12.90;99.90;;;12.16;100.00;97186.06;4966227;28;20062;-79
2023/08/29 02:40:13;;;;;;;10.75;6.68;;;12.90;99.90;;;12.24;100.00;97187.34;4966492;28;20149;-77
2023/08/29 02:42:40;;;;;;;14.80;6.85;;;13.00;99.90;;;12.15;100.00;97180.03;4976757;28;21830;-79
2023/08/29 02:45:08;;;;;;;14.23;9.70;;;13.00;99.90;;;12.16;100.00;97186.94;4963514;28;20806;-79
2023/08/29 02:47:35;;;;;;;14.15;7.57;;;12.90;99.90;;;12.23;100.00;97192.66;4962254;28;20956;-79
2023/08/29 02:50:03;;;;;;;9.38;6.60;;;13.00;99.90;;;12.25;100.00;97188.19;4962197;28;20047;-79
2023/08/29 02:52:30;;;;;;;12.20;8.23;;;13.00;99.90;;;12.24;100.00;97189.09;4966309;28;20085;-79
2023/08/29 02:54:58;;;;;;;13.68;8.63;;;13.00;99.90;;;12.28;100.00;97181.03;4967233;28;20055;-79
2023/08/29 02:57:25;;;;;;;12.85;8.35;;;13.10;99.90;;;12.29;100.00;97176.66;4964004;28;20435;-79
2023/08/29 02:59:52;;;;;;;11.88;7.63;;;13.10;99.90;;;12.35;100.00;97176.34;4966148;28;20106;-78
2023/08/29 03:02:20;;;;;;;10.90;8.50;;;13.10;99.90;;;12.37;100.00;97181.47;4965632;28;20079;-77
2023/08/29 03:04:48;;;;;;;10.98;7.90;;;13.20;99.90;;;12.40;100.00;97183.88;4963260;28;20059;-79
2023/08/29 03:07:15;;;;;;;10.32;7.75;;;13.20;99.90;;;12.42;100.00;97175.06;4966412;28;20134;-78
2023/08/29 03:09:42;;;;;;;13.15;9.57;;;13.20;99.90;;;12.40;100.00;97176.91;4966529;28;20047;-79
2023/08/29 03:12:09;;;;;;;11.45;7.68;;;13.20;99.90;;;12.38;100.00;97167.50;4952550;28;20051;-79
2023/08/29 03:14:36;;;;;;;14.70;10.00;;;13.20;99.90;;;12.29;100.00;97172.31;4965913;28;20047;-79
2023/08/29 03:17:03;;;;;;;9.52;7.13;;;13.20;99.90;;;12.29;100.00;97166.25;4962667;28;20069;-79
2023/08/29 03:19:30;;;;;;;13.50;9.38;;;13.10;99.90;;;12.35;100.00;97169.38;4966478;28;20085;-79
2023/08/29 03:21:58;;;;;;;16.40;10.70;;;13.10;99.90;;;12.52;100.00;97173.63;4962207;28;20077;-78
2023/08/29 03:24:25;;;;;;;19.48;11.20;;;13.20;99.90;;;12.54;100.00;97165.72;4966261;28;20073;-78
2023/08/29 03:26:52;;;;;;;14.90;11.45;;;13.20;99.90;;;12.58;100.00;97161.19;4951495;28;20142;-78
2023/08/29 03:29:19;;;;;;;18.23;12.98;;;13.20;99.90;;;12.63;100.00;97165.19;4967369;28;20047;-78
2023/08/29 03:31:47;;;;;;;12.30;10.40;;;13.30;99.90;;;12.51;100.00;97168.50;4967161;28;20086;-79
2023/08/29 03:34:14;;;;;;;12.23;8.07;;;13.30;99.90;;;12.34;100.00;97164.25;4984115;28;20160;-80
2023/08/29 03:36:44;;;;;;;14.20;9.45;;;13.20;99.90;;;12.32;100.00;97168.72;4963772;28;20121;-78
2023/08/29 03:39:11;;;;;;;17.25;8.98;;;13.20;99.90;;;12.33;100.00;97171.22;4967956;28;20083;-79
2023/08/29 03:41:38;;;;;;;13.05;8.95;;;13.10;99.90;;;12.35;100.00;97166.75;4964370;28;20141;-80
2023/08/29 03:44:06;;;;;;;11.88;8.80;;;13.10;99.90;;;12.30;100.00;97173.16;4966074;28;20126;-80
2023/08/29 03:46:33;;;;;;;12.63;9.80;;;13.10;99.90;;;12.27;100.00;97163.75;4964972;28;20062;-79
2023/08/29 03:49:00;;;;;;;14.18;9.82;;;13.10;99.90;;;12.27;100.00;97165.50;4964203;28;20061;-78
2023/08/29 03:51:27;;;;;;;13.95;10.35;;;13.00;99.90;;;12.23;100.00;97167.47;4963013;28;20039;-78
2023/08/29 03:53:55;;;;;;;16.67;10.30;;;13.00;99.90;;;12.27;100.00;97168.09;4979416;28;20121;-78
2023/08/29 03:56:22;;;;;;;14.63;11.38;;;13.10;99.90;;;12.28;100.00;97164.59;4966228;28;20126;-78
2023/08/29 03:58:49;;;;;;;12.50;9.50;;;13.00;99.90;;;12.28;100.00;97173.25;4965230;28;20142;-79
2023/08/29 04:01:22;;;;;;;11.20;9.57;;;13.00;99.90;;;12.20;100.00;97172.84;4950949;28;20066;-77
2023/08/29 04:03:49;;;;;;;11.75;8.55;;;13.00;99.90;;;12.20;100.00;97172.84;4962881;28;20058;-78
2023/08/29 04:06:20;;;;;;;7.88;6.50;;;13.00;99.90;;;12.19;100.00;97170.31;4966842;28;20055;-78
2023/08/29 04:08:48;;;;;;;10.48;6.15;;;13.00;99.90;;;12.15;100.00;97167.03;4966434;28;20058;-78
2023/08/29 04:11:15;;;;;;;12.93;7.13;;;12.90;99.90;;;12.09;100.00;97175.19;4966388;28;20459;-78
2023/08/29 04:13:42;;;;;;;10.48;8.82;;;12.90;99.90;;;12.03;100.00;97170.31;4968195;28;20070;-78
2023/08/29 04:16:09;;;;;;;17.48;12.15;;;12.90;99.90;;;12.13;100.00;97168.88;4978224;28;20046;-78
2023/08/29 04:18:36;;;;;;;14.00;11.40;;;12.90;99.90;;;12.27;100.00;97168.09;4949187;28;20050;-79
2023/08/29 04:21:03;;;;;;;15.60;12.05;;;12.90;99.90;;;12.33;100.00;97167.78;4963585;28;20526;-79
2023/08/29 04:23:30;;;;;;;18.13;12.85;;;13.00;99.90;;;12.32;100.00;97168.72;4981959;28;20435;-78
2023/08/29 04:26:03;;;;;;;19.15;13.40;;;13.00;99.90;;;12.26;100.00;97166.44;4980456;28;20141;-79
2023/08/29 04:28:30;;;;;;;15.32;10.93;;;13.10;99.90;;;12.39;100.00;97164.00;4981247;28;20051;-78
2023/08/29 04:31:11;;;;;;;16.63;12.23;;;13.10;99.90;;;12.27;100.00;97168.09;4979689;28;20051;-79
2023/08/29 04:33:39;;;;;;;15.27;11.90;;;13.10;99.90;;;12.26;100.00;97164.66;4965031;28;20074;-79
2023/08/29 04:36:08;;;;;;;27.27;17.50;;;13.10;99.90;;;12.15;100.00;97161.84;4987228;28;20149;-81
2023/08/29 04:38:35;;;;;;;24.25;15.60;;;13.00;99.90;;;12.20;100.00;97161.56;4982546;28;20043;-78
2023/08/29 04:41:03;;;;;;;16.42;12.45;;;13.10;99.90;;;12.21;100.00;97160.66;4966392;28;20136;-78
2023/08/29 04:43:31;;;;;;;18.13;12.27;;;13.00;99.90;;;12.20;100.00;97159.84;4964547;28;20055;-78
2023/08/29 04:45:58;;;;;;;14.48;11.68;;;13.00;99.90;;;12.22;100.00;97159.72;4950012;28;20567;-79
2023/08/29 04:48:25;;;;;;;15.73;11.50;;;13.00;99.90;;;12.21;100.00;97158.91;4965419;28;20046;-78
2023/08/29 04:50:52;;;;;;;15.32;10.85;;;13.00;99.90;;;12.25;100.00;97156.97;4967269;28;20489;-78
2023/08/29 04:53:20;;;;;;;15.98;11.52;;;13.00;99.90;;;12.24;100.00;97153.50;4963128;28;20109;-78
2023/08/29 04:55:47;;;;;;;15.93;11.85;;;13.00;99.90;;;12.29;100.00;97161.06;4966518;28;20062;-79
2023/08/29 04:58:15;;;;;;;17.60;12.73;;;13.00;99.90;;;12.23;100.00;97157.06;4961620;28;20054;-78
2023/08/29 05:00:42;;;;;;;18.08;12.15;;;13.00;99.90;;;12.28;100.00;97152.41;4981432;28;20074;-79
2023/08/29 05:03:09;;;;;;;13.23;10.82;;;13.00;99.90;;;12.24;100.00;97150.91;4979276;28;20047;-78
2023/08/29 05:05:37;;;;;;;13.13;10.50;;;13.00;99.90;;;12.30;100.00;97149.75;4966886;28;20473;-79
2023/08/29 05:08:07;;;;;;;14.43;10.75;;;13.00;99.90;;;12.31;100.00;97141.00;4948318;28;20070;-79
2023/08/29 05:10:34;;;;;;;13.25;10.57;;;13.10;99.90;;;12.29;100.00;97153.25;4966353;28;20047;-79
2023/08/29 05:13:02;;;;;;;13.95;10.60;;;13.10;99.90;;;12.29;100.00;97148.03;4962347;28;20058;-80
2023/08/29 05:15:31;;;;;;;14.57;11.45;;;13.10;99.90;;;12.27;100.00;97149.91;4967466;28;20141;-78
2023/08/29 05:18:01;;;;;;;15.98;11.35;;;13.10;99.90;;;12.36;100.00;97149.38;4982025;28;20464;-78
2023/08/29 05:20:28;;;;;;;16.10;11.32;;;13.10;99.90;;;12.46;100.00;97155.75;4950146;28;20090;-80
2023/08/29 05:22:56;;;;;;;14.50;10.05;;;13.20;99.90;;;12.42;100.00;97154.25;4949859;28;20512;-79
2023/08/29 05:25:23;;;;;;;11.77;9.63;;;13.20;99.90;;;12.42;100.00;97150.81;4963544;28;20532;-79
2023/08/29 05:27:50;;;;;;;13.30;9.75;;;13.20;99.90;;;12.37;100.00;97151.06;4961270;28;20043;-78
2023/08/29 05:30:17;;;;;;;12.52;10.02;;;13.20;99.90;;;12.44;100.00;97151.56;4965317;28;20621;-78
2023/08/29 05:32:45;;;;;;;16.65;12.88;;;13.20;99.90;;;12.64;100.00;97153.84;4964337;28;20074;-79
2023/08/29 05:35:12;;;;;;;17.25;11.77;;;13.20;99.90;;;12.70;100.00;97150.91;4965348;28;20166;-80
2023/08/29 05:37:39;;;;;;;19.80;13.70;;;13.30;99.90;;;12.84;100.00;97149.25;4964195;28;20051;-79
2023/08/29 05:40:08;;;;;;;14.32;11.63;;;13.40;99.90;;;12.92;100.00;97153.09;4964538;28;20101;-78
2023/08/29 05:42:35;;;;;;;15.05;10.85;;;13.40;99.90;;;13.01;100.00;97146.50;4966173;28;20117;-78
2023/08/29 05:45:03;;;;;;;16.88;11.68;;;13.50;99.90;;;13.08;100.00;97146.97;4964657;28;20500;-78
2023/08/29 05:47:30;;;;;;;17.27;14.25;;;13.60;99.90;;;13.17;100.00;97147.25;4962332;28;20054;-78
2023/08/29 05:49:58;;;;;;;16.85;13.57;;;13.70;99.90;;;13.22;100.00;97148.75;4979716;28;20519;-79
2023/08/29 05:52:25;;;;;;;14.73;11.55;;;13.80;99.90;;;13.37;100.00;97147.88;4948746;28;20043;-79
2023/08/29 05:54:52;;;;;;;15.13;10.75;;;13.80;99.90;;;13.35;100.00;97134.09;4963451;28;20055;-79
2023/08/29 05:57:20;;;;;;;12.18;10.45;;;13.90;99.90;;;13.37;100.00;97137.44;4964614;28;20051;-80
2023/08/29 05:59:47;;;;;;;12.48;11.07;;;13.90;99.90;;;13.37;100.00;97137.44;4961605;28;20062;-78
2023/08/29 06:02:14;;;;;;;14.80;11.75;;;13.90;99.90;;;13.39;100.00;97141.63;4949423;28;20055;-78
2023/08/29 06:04:41;;;;;;;19.65;12.77;;;14.00;99.90;;;13.42;100.00;97140.59;4962739;28;20137;-79
2023/08/29 06:07:09;;;;;;;20.55;10.93;;;14.00;99.90;;;13.47;100.00;97137.72;4948404;28;20086;-79
2023/08/29 06:09:40;;;;;;;13.30;10.65;;;14.10;99.90;;;13.53;100.00;97139.94;4960397;28;20062;-82
2023/08/29 06:12:09;;;;;;;15.45;10.52;;;14.00;99.90;;;13.48;100.00;97136.75;4965004;28;20221;-79
2023/08/29 06:14:36;;;;;;;12.40;10.48;;;14.10;99.90;;;13.52;100.00;97140.88;4982682;28;20467;-78
2023/08/29 06:17:04;;;;;;;14.30;10.27;;;14.20;99.90;;;13.66;100.00;97143.47;4963318;28;20065;-80
2023/08/29 06:19:31;;;;;;;14.50;11.32;;;14.20;99.90;;;13.70;100.00;97150.16;4964703;28;20140;-81
2023/08/29 06:21:58;;;;;;;14.27;11.52;;;14.20;99.90;;;13.73;100.00;97147.38;4965276;28;20076;-79
2023/08/29 06:24:25;;;;;;;13.07;10.48;;;14.30;99.90;;;13.90;100.00;97145.47;4961005;28;20097;-78
2023/08/29 06:26:54;;;;;;;12.35;9.43;;;14.40;99.90;;;14.04;100.00;97145.44;4948072;28;20085;-78
2023/08/29 06:29:21;;;;;;;13.30;10.80;;;14.50;99.90;;;14.10;100.00;97146.84;4964360;28;20093;-79
2023/08/29 06:31:49;;;;;;;13.88;10.13;;;14.50;99.90;;;14.08;100.00;97143.47;4947894;28;20047;-79
2023/08/29 06:34:16;;;;;;;13.75;9.90;;;14.60;99.90;;;14.22;100.00;97143.44;4949445;28;20133;-78
2023/08/29 06:36:46;;;;;;;12.60;9.60;;;14.70;99.90;;;14.28;100.00;97145.66;4947377;28;20055;-80
2023/08/29 06:39:14;;;;;;;19.20;9.45;;;14.80;99.90;;;14.25;100.00;97147.63;4964953;28;20074;-78
2023/08/29 06:41:41;;;;;;;13.15;10.05;;;14.80;99.90;;;14.28;100.00;97148.28;4965265;28;20086;-79
2023/08/29 06:44:08;;;;;;;14.80;10.98;;;14.90;99.90;;;14.70;100.00;97137.75;4981112;28;20050;-79
2023/08/29 06:46:35;;;;;;;11.32;9.15;;;14.90;99.90;;;14.65;100.00;97138.06;4968223;28;20042;-77
2023/08/29 06:49:05;;;;;;;11.02;9.07;;;15.10;99.90;;;14.73;100.00;97129.69;4952023;28;20146;-82
2023/08/29 06:51:32;;;;;;;12.80;9.68;;;15.10;99.90;;;14.83;100.00;97126.38;4967331;28;20054;-80
2023/08/29 06:54:00;;;;;;;14.68;10.63;;;15.30;99.90;;;14.86;100.00;97130.56;4966397;28;20070;-79
2023/08/29 06:56:27;;;;;;;14.25;10.23;;;15.30;99.90;;;14.87;100.00;97123.56;4956825;28;20105;-79
2023/08/29 06:58:54;;;;;;;15.90;12.02;;;15.40;99.90;;;14.93;100.00;97121.38;4972323;28;20154;-79
2023/08/29 07:01:21;;;;;;;11.20;9.10;;;15.50;99.90;;;15.00;100.00;97114.78;4965480;28;20126;-79
2023/08/29 07:03:48;;;;;;;13.77;11.63;;;15.50;99.90;;;14.87;100.00;97115.72;4965773;28;20130;-78
2023/08/29 07:06:16;;;;;;;15.57;11.98;;;15.50;99.90;;;15.03;100.00;97122.44;4951524;28;20047;-80
2023/08/29 07:08:43;;;;;;;14.85;12.13;;;15.60;99.90;;;14.90;100.00;97121.59;4963206;28;20063;-79
2023/08/29 07:11:31;;;;;;;15.98;10.52;;;15.60;99.90;;;15.32;100.00;97116.97;4966462;28;20054;-80
2023/08/29 07:13:58;;;;;;;15.27;10.77;;;15.70;99.90;;;15.52;100.00;97117.38;4963931;28;20051;-79
2023/08/29 07:16:25;;;;;;;13.80;9.93;;;15.90;99.90;;;15.58;100.00;97109.94;4964747;28;20085;-79
2023/08/29 07:18:53;;;;;;;12.80;10.57;;;16.00;99.90;;;15.99;100.00;97110.59;4965292;28;20501;-77
2023/08/29 07:21:22;;;;;;;13.55;10.70;;;16.20;99.90;;;15.77;100.00;97113.91;4967838;28;20047;-77
2023/08/29 07:23:49;;;;;;;13.80;9.35;;;16.30;99.90;;;15.95;100.00;97115.22;4968404;28;20511;-77
2023/08/29 07:26:19;;;;;;;10.65;8.38;;;16.30;99.90;;;16.01;100.00;97112.16;4967933;28;20058;-77
2023/08/29 07:28:46;;;;;;;15.88;9.68;;;16.40;99.90;;;15.95;100.00;97111.75;4981554;28;20074;-78
2023/08/29 07:31:13;;;;;;;14.93;10.48;;;16.50;99.90;;;15.88;100.00;97116.59;4966328;28;20125;-77
2023/08/29 07:33:41;;;;;;;14.65;10.35;;;16.50;99.90;;;15.91;100.00;97113.75;4967442;28;20043;-75
2023/08/29 07:36:08;;;;;;;11.80;10.43;;;16.50;99.90;;;16.27;100.00;97123.34;4965292;28;20049;-77
2023/08/29 07:38:35;;;;;;;13.88;10.88;;;16.60;99.90;;;15.97;100.00;97123.78;4965530;28;20574;-79
2023/08/29 07:41:05;;;;;;;10.45;9.05;;;16.70;99.90;;;15.99;100.00;97128.94;4964459;28;20043;-77
2023/08/29 07:43:32;;;;;;;10.52;8.73;;;16.70;99.90;;;16.41;100.00;97135.44;4966692;28;20138;-77
2023/08/29 07:46:00;;;;;;;11.65;9.82;;;16.80;99.90;;;16.58;100.00;97128.97;4965263;28;20409;-78
2023/08/29 07:48:27;;;;;;;12.25;9.60;;;16.90;99.90;;;16.54;100.00;97132.75;4963897;28;20061;-78
2023/08/29 07:50:54;;;;;;;9.25;7.43;;;16.90;99.90;;;16.66;100.00;97131.84;4964745;28;20105;-79
2023/08/29 07:53:22;;;;;;;10.65;8.05;;;17.00;99.90;;;16.33;100.00;97137.78;4979218;28;20054;-79
2023/08/29 07:55:50;;;;;;;10.40;7.70;;;17.10;99.90;;;16.54;100.00;97135.38;4970125;28;20055;-76
2023/08/29 07:58:17;;;;;;;9.05;7.43;;;17.20;99.90;;;16.58;100.00;97136.84;4961409;28;20054;-77
2023/08/29 08:00:47;;;;;;;9.95;8.20;;;17.30;99.90;;;16.45;100.00;97136.06;4959280;28;20055;-81
2023/08/29 08:03:14;;;;;;;12.90;8.98;;;17.20;99.90;;;16.52;100.00;97143.34;4961181;28;20242;-78
2023/08/29 08:05:42;;;;;;;11.55;9.07;;;17.20;99.90;;;16.81;100.00;97145.63;4948514;28;20078;-78
2023/08/29 08:08:09;;;;;;;10.02;7.20;;;17.20;99.90;;;17.27;100.00;97143.94;4963726;28;20063;-79
2023/08/29 08:10:36;;;;;;;9.60;8.15;;;17.40;99.90;;;17.75;100.00;97141.91;4946223;28;20043;-79
2023/08/29 08:13:04;;;;;;;9.23;7.78;;;17.60;99.90;;;17.62;100.00;97146.44;4965638;28;20142;-78
2023/08/29 08:15:31;;;;;;;11.40;8.70;;;17.90;99.90;;;18.33;100.00;97146.94;4968985;28;20143;-79
2023/08/29 08:17:58;;;;;;;8.52;7.30;;;18.00;99.90;;;19.07;100.00;97140.94;4963397;28;20218;-78
2023/08/29 08:20:25;;;;;;;9.13;8.23;;;18.60;99.90;;;19.04;100.00;97149.06;4967224;28;20051;-78
2023/08/29 08:22:53;;;;;;;9.15;7.47;;;18.80;99.90;;;19.80;100.00;97147.00;4982576;28;20062;-79
2023/08/29 08:25:20;;;;;;;7.38;6.50;;;19.30;99.90;;;19.28;100.00;97156.69;4964230;28;20073;-79
2023/08/29 08:27:48;;;;;;;9.85;7.18;;;19.90;99.90;;;19.08;100.00;97152.28;4967684;28;20591;-79
2023/08/29 08:30:15;;;;;;;8.90;6.95;;;20.40;99.90;;;20.03;100.00;97144.97;4966108;28;20051;-79
2023/08/29 08:32:43;;;;;;;9.45;6.70;;;20.80;99.90;;;20.11;100.00;97154.00;4966394;28;20051;-78
2023/08/29 08:35:11;;;;;;;6.97;4.65;;;21.50;99.90;;;19.77;100.00;97152.50;4965796;28;20440;-79
2023/08/29 08:37:39;;;;;;;6.25;4.90;;;21.80;99.90;;;20.31;100.00;97154.88;4966652;28;20125;-78
2023/08/29 08:40:10;;;;;;;7.78;5.53;;;21.70;99.90;;;19.19;100.00;97165.38;4967479;28;20149;-79
2023/08/29 08:42:43;;;;;;;8.63;5.82;;;21.50;99.90;;;19.37;100.00;97165.63;4966932;28;20053;-78
2023/08/29 08:45:14;;;;;;;8.23;5.05;;;21.30;99.90;;;20.07;100.00;97164.00;4966152;28;20145;-78
2023/08/29 08:47:42;;;;;;;8.63;5.60;;;21.60;99.90;;;20.62;100.00;97163.56;4982986;28;20085;-78
2023/08/29 08:50:10;;;;;;;8.57;6.20;;;22.00;99.90;;;20.02;100.00;97158.28;4981664;28;21850;-79
2023/08/29 08:52:39;;;;;;;7.47;5.75;;;22.30;99.90;;;20.17;100.00;97162.19;4952623;28;20144;-78
2023/08/29 08:55:07;;;;;;;15.10;5.50;;;22.50;99.90;;;20.18;100.00;97169.13;4969080;28;20125;-80
2023/08/29 08:57:35;;;;;;;6.85;4.68;;;22.70;99.90;;;20.63;100.00;97173.94;4952094;28;20171;-80
2023/08/29 09:00:06;;;;;;;6.80;4.60;;;22.70;99.90;;;21.72;100.00;97174.50;4965017;28;20086;-78
2023/08/29 09:02:36;;;;;;;7.23;5.13;;;22.90;99.90;;;21.18;100.00;97177.81;4966773;28;20047;-78
2023/08/29 09:05:03;;;;;;;6.70;4.38;;;23.10;99.90;;;21.94;100.00;97164.53;4970762;28;20382;-79
2023/08/29 09:07:40;;;;;;;8.10;5.22;;;23.60;99.90;;;22.26;100.00;97169.41;4959393;28;20050;-79
2023/08/29 09:10:17;;;;;;;6.10;3.80;;;24.00;99.90;;;21.79;100.00;97171.28;4965873;28;20566;-79
2023/08/29 09:12:56;;;;;;;5.05;3.60;;;23.50;99.90;;;21.57;100.00;97165.38;4966542;28;20078;-78
2023/08/29 09:15:26;;;;;;;5.90;3.70;;;23.70;99.90;;;22.74;100.00;97160.28;4968235;28;20515;-78
2023/08/29 09:17:54;;;;;;;5.30;3.35;;;24.00;99.90;;;22.28;100.00;97162.16;4965585;28;20047;-78
2023/08/29 09:20:24;;;;;;;5.55;3.33;;;24.50;99.90;;;20.87;100.00;97178.00;4964653;28;20072;-78
2023/08/29 09:22:51;;;;;;;9.13;4.07;;;23.70;99.90;;;20.32;100.00;97174.97;4966617;28;20047;-79
2023/08/29 09:25:18;;;;;;;6.63;3.92;;;22.40;99.90;;;20.48;100.00;97160.31;4970679;28;20468;-78
2023/08/29 09:27:48;;;;;;;6.00;3.85;;;21.90;99.90;;;20.54;100.00;97172.09;4968128;28;20046;-78
2023/08/29 09:30:17;;;;;;;4.70;4.07;;;21.50;99.90;;;20.13;100.00;97160.78;4981381;28;20138;-79
2023/08/29 09:32:50;;;;;;;6.13;4.70;;;21.60;99.90;;;20.11;100.00;97170.63;4979578;28;20516;-78
2023/08/29 09:35:22;;;;;;;6.63;4.32;;;21.20;99.90;;;19.41;100.00;97162.59;4962211;28;20049;-78
2023/08/29 09:37:52;;;;;;;6.80;4.47;;;20.80;99.90;;;19.01;100.00;97165.09;4967292;28;20054;-79
2023/08/29 09:40:21;;;;;;;5.78;4.00;;;20.30;99.90;;;19.25;100.00;97164.84;4982192;28;20459;-79
2023/08/29 09:42:59;;;;;;;;;;;20.20;99.90;;;19.47;100.00;97160.38;4985678;28;20582;-78
2023/08/29 09:45:31;;;;;;;8.35;3.80;;;20.00;99.90;;;19.18;100.00;97156.66;4965441;28;19993;-79
2023/08/29 09:48:08;;;;;;;8.40;4.13;;;20.00;99.90;;;18.67;100.00;97159.97;4962889;28;20487;-78
2023/08/29 09:50:37;;;;;;;9.60;3.95;;;19.80;99.90;;;18.60;100.00;97156.19;4965935;28;20571;-78
2023/08/29 09:53:05;;;;;;;6.25;3.70;;;19.60;99.90;;;18.95;100.00;97150.69;4952122;28;20051;-80
2023/08/29 09:55:39;;;;;;;4.88;3.40;;;19.60;99.90;;;19.81;100.00;97153.09;4964895;28;20662;-78
2023/08/29 09:58:08;;;;;;;4.97;2.92;;;20.00;99.90;;;20.05;100.00;97156.22;4963119;28;20058;-78
2023/08/29 10:00:37;;;;;;;5.45;3.65;;;20.40;99.90;;;19.79;100.00;97157.66;4966025;28;20055;-79
2023/08/29 10:03:09;;;;;;;6.93;3.60;;;20.50;99.90;;;19.78;100.00;97156.00;4962395;28;20063;-77
2023/08/29 10:05:40;;;;;;;6.60;2.70;;;20.50;99.90;;;20.80;100.00;97158.38;4966224;28;20063;-79
2023/08/29 10:08:18;;;;;;;4.30;2.60;;;20.80;99.90;;;21.37;100.00;97153.16;4965358;28;20464;-79
2023/08/29 10:10:47;;;;;;;4.47;2.15;;;21.90;99.90;;;21.52;100.00;97152.59;4965842;28;20050;-79
2023/08/29 10:13:15;;;;;;;4.65;3.22;;;22.00;99.90;;;21.00;100.00;97151.28;4965612;28;20170;-79